createdAt,value
2018-11-14T00:00:54.892Z,17.73
2018-11-14T00:05:58.087Z,17.07
2018-11-14T00:11:01.307Z,16.80
2018-11-14T00:16:04.488Z,17.95
2018-11-14T00:21:07.724Z,18.77
2018-11-14T00:26:10.899Z,19.07
2018-11-14T00:31:14.100Z,20.12
2018-11-14T00:36:17.320Z,18.50
2018-11-14T00:41:20.483Z,18.95
2018-11-14T00:46:23.691Z,18.27
2018-11-14T00:51:26.866Z,19.73
2018-11-14T00:56:30.092Z,20.72
2018-11-14T01:01:33.390Z,20.40
2018-11-14T01:06:36.524Z,20.40
2018-11-14T01:11:39.823Z,21.42
2018-11-14T01:16:43.062Z,21.00
2018-11-14T01:21:46.737Z,19.48
2018-11-14T01:26:49.448Z,18.70
2018-11-14T01:31:52.638Z,18.97
2018-11-14T01:36:55.815Z,18.57
2018-11-14T01:41:59.018Z,20.40
2018-11-14T01:47:02.321Z,18.82
2018-11-14T01:52:05.652Z,18.48
2018-11-14T01:57:08.860Z,20.43
2018-11-14T02:02:12.068Z,19.40
2018-11-14T02:07:15.336Z,19.77
2018-11-14T02:12:18.853Z,20.30
2018-11-14T02:17:22.063Z,18.73
2018-11-14T02:22:25.299Z,18.62
2018-11-14T02:27:28.527Z,18.17
2018-11-14T02:32:31.739Z,21.00
2018-11-14T02:37:35.004Z,19.23
2018-11-14T02:42:38.390Z,21.05
2018-11-14T02:47:41.631Z,19.87
2018-11-14T02:52:44.884Z,19.95
2018-11-14T02:57:48.261Z,20.43
2018-11-14T03:02:51.478Z,19.55
2018-11-14T03:07:54.707Z,21.97
2018-11-14T03:12:57.908Z,21.87
2018-11-14T03:18:01.109Z,21.90
2018-11-14T03:23:04.324Z,20.30
2018-11-14T03:28:07.520Z,20.85
2018-11-14T03:33:10.709Z,20.85
2018-11-14T03:38:13.909Z,20.00
2018-11-14T03:43:17.083Z,19.85
2018-11-14T03:48:20.276Z,19.50
2018-11-14T03:53:23.469Z,19.23
2018-11-14T03:58:26.819Z,19.57
2018-11-14T04:03:29.853Z,19.35
2018-11-14T04:08:33.068Z,19.37
2018-11-14T04:13:36.248Z,20.37
2018-11-14T04:18:39.448Z,20.07
2018-11-14T04:23:47.373Z,18.93
2018-11-14T04:28:50.563Z,20.17
2018-11-14T04:33:53.763Z,20.72
2018-11-14T04:38:56.968Z,18.77
2018-11-14T04:44:00.191Z,19.27
2018-11-14T04:49:03.659Z,19.20
2018-11-14T04:54:06.874Z,20.72
2018-11-14T04:59:10.064Z,20.37
2018-11-14T05:04:13.276Z,19.20
2018-11-14T05:09:16.527Z,19.60
2018-11-14T05:14:19.755Z,19.85
2018-11-14T05:19:23.175Z,19.40
2018-11-14T05:24:26.484Z,20.37
2018-11-14T05:29:29.699Z,21.85
2018-11-14T05:34:33.019Z,21.17
2018-11-14T05:39:36.286Z,19.87
2018-11-14T05:44:39.471Z,20.95
2018-11-14T05:49:42.775Z,19.07
2018-11-14T05:54:46.004Z,18.42
2018-11-14T05:59:49.227Z,17.75
2018-11-14T06:04:52.446Z,18.95
2018-11-14T06:09:55.698Z,19.27
2018-11-14T06:14:58.935Z,18.67
2018-11-14T06:20:02.165Z,18.65
2018-11-14T06:25:33.907Z,19.12
2018-11-14T06:30:37.646Z,19.63
2018-11-14T06:35:40.891Z,18.65
2018-11-14T06:40:44.129Z,22.10
2018-11-14T06:45:47.350Z,20.75
2018-11-14T06:50:50.569Z,21.48
2018-11-14T06:55:53.829Z,19.65
2018-11-14T07:00:57.088Z,19.77
2018-11-14T07:06:00.439Z,18.90
2018-11-14T07:11:03.592Z,20.00
2018-11-14T07:16:06.721Z,20.65
2018-11-14T07:21:09.941Z,19.63
2018-11-14T07:26:13.163Z,19.90
2018-11-14T07:31:16.375Z,19.50
2018-11-14T07:36:19.611Z,16.05
2018-11-14T07:41:26.196Z,13.08
2018-11-14T07:46:30.516Z,11.57
2018-11-14T07:51:33.751Z,10.00
2018-11-14T07:56:36.978Z,10.35
2018-11-14T08:01:40.207Z,8.50
2018-11-14T08:06:43.824Z,8.50
2018-11-14T08:11:47.031Z,7.97
2018-11-14T08:16:50.331Z,7.75
2018-11-14T08:21:53.575Z,7.60
2018-11-14T08:26:56.797Z,7.03
2018-11-14T08:32:00.035Z,7.10
2018-11-14T08:37:03.271Z,6.72
2018-11-14T08:42:06.508Z,7.27
2018-11-14T08:47:09.724Z,7.05
2018-11-14T08:52:12.975Z,7.15
2018-11-14T08:57:16.196Z,6.27
2018-11-14T09:02:19.455Z,5.92
2018-11-14T09:07:22.692Z,6.12
2018-11-14T09:12:25.928Z,5.65
2018-11-14T09:17:29.135Z,5.50
2018-11-14T09:22:32.626Z,5.17
2018-11-14T09:27:35.856Z,5.72
2018-11-14T09:32:39.070Z,5.73
2018-11-14T09:37:42.303Z,5.85
2018-11-14T09:42:45.519Z,5.37
2018-11-14T09:47:48.883Z,5.10
2018-11-14T09:52:54.340Z,5.20
2018-11-14T09:57:57.571Z,5.53
2018-11-14T10:03:08.627Z,5.60
2018-11-14T10:08:11.856Z,5.97
2018-11-14T10:13:15.047Z,5.57
2018-11-14T10:18:18.291Z,5.15
2018-11-14T10:23:21.471Z,6.13
2018-11-14T10:28:24.715Z,5.30
2018-11-14T10:33:27.927Z,5.80
2018-11-14T10:38:31.142Z,5.45
2018-11-14T10:43:34.445Z,5.83
2018-11-14T10:48:37.663Z,6.20
2018-11-14T10:53:40.867Z,6.03
2018-11-14T10:58:44.086Z,6.28
2018-11-14T11:03:52.635Z,5.70
2018-11-14T11:09:01.208Z,6.50
2018-11-14T11:14:09.823Z,7.25
2018-11-14T11:19:13.707Z,5.92
2018-11-14T11:24:18.231Z,6.37
2018-11-14T11:29:21.463Z,6.60
2018-11-14T11:34:24.667Z,6.30
2018-11-14T11:39:27.897Z,7.07
2018-11-14T11:44:31.196Z,6.75
2018-11-14T11:49:34.415Z,6.97
2018-11-14T11:54:37.623Z,7.30
2018-11-14T11:59:40.893Z,6.65
2018-11-14T12:04:43.995Z,7.13
2018-11-14T12:09:47.223Z,8.68
2018-11-14T12:14:50.427Z,7.20
2018-11-14T12:19:53.642Z,7.30
2018-11-14T12:24:56.872Z,7.45
2018-11-14T12:30:00.197Z,7.87
2018-11-14T12:35:03.302Z,7.30
2018-11-14T12:40:07.263Z,7.87
2018-11-14T12:45:12.337Z,7.70
2018-11-14T12:50:15.451Z,8.30
2018-11-14T12:55:19.165Z,7.85
2018-11-14T13:00:22.599Z,6.65
2018-11-14T13:05:25.843Z,7.10
2018-11-14T13:10:29.054Z,6.70
2018-11-14T13:15:32.259Z,6.72
2018-11-14T13:20:35.463Z,7.10
2018-11-14T13:25:38.647Z,6.97
2018-11-14T13:30:41.879Z,6.87
2018-11-14T13:35:45.487Z,6.80
2018-11-14T13:40:48.715Z,6.80
2018-11-14T13:45:51.923Z,7.22
2018-11-14T13:50:55.304Z,7.55
2018-11-14T13:55:58.321Z,10.27
2018-11-14T14:01:01.534Z,6.70
2018-11-14T14:06:04.911Z,7.83
2018-11-14T14:11:08.127Z,7.80
2018-11-14T14:16:11.335Z,7.20
2018-11-14T14:21:14.508Z,7.10
2018-11-14T14:26:17.722Z,7.93
2018-11-14T14:31:20.920Z,7.53
2018-11-14T14:36:24.123Z,6.70
2018-11-14T14:41:27.312Z,6.33
2018-11-14T14:46:30.630Z,6.10
2018-11-14T14:51:33.847Z,5.97
2018-11-14T14:56:37.045Z,5.50
2018-11-14T15:01:40.268Z,5.85
2018-11-14T15:06:43.475Z,6.10
2018-11-14T15:11:46.678Z,5.77
2018-11-14T15:16:49.887Z,6.17
2018-11-14T15:21:53.083Z,6.58
2018-11-14T15:26:56.319Z,6.53
2018-11-14T15:31:59.522Z,8.75
2018-11-14T15:37:03.595Z,7.97
2018-11-14T15:42:06.960Z,7.60
2018-11-14T15:47:10.159Z,6.83
2018-11-14T15:52:13.379Z,7.25
2018-11-14T15:57:16.598Z,7.40
2018-11-14T16:02:20.607Z,7.67
2018-11-14T16:07:23.873Z,8.08
2018-11-14T16:12:27.380Z,8.58
2018-11-14T16:17:30.683Z,10.38
2018-11-14T16:22:33.983Z,10.40
2018-11-14T16:27:37.199Z,10.75
2018-11-14T16:32:40.772Z,9.83
2018-11-14T16:37:44.291Z,10.23
2018-11-14T16:42:48.038Z,11.70
2018-11-14T16:47:51.402Z,9.90
2018-11-14T16:52:54.764Z,11.65
2018-11-14T16:57:58.251Z,11.57
2018-11-14T17:03:01.519Z,15.03
2018-11-14T17:08:04.977Z,13.00
2018-11-14T17:13:08.180Z,13.65
2018-11-14T17:18:11.473Z,14.78
2018-11-14T17:23:14.794Z,16.32
2018-11-14T17:28:19.228Z,16.25
2018-11-14T17:33:22.569Z,17.15
2018-11-14T17:38:25.731Z,21.37
2018-11-14T17:43:28.933Z,16.62
2018-11-14T17:48:32.143Z,15.13
2018-11-14T17:53:35.342Z,18.63
2018-11-14T17:58:38.539Z,17.10
2018-11-14T18:03:41.755Z,19.75
2018-11-14T18:08:45.131Z,19.57
2018-11-14T18:13:48.372Z,32.03
2018-11-14T18:18:51.628Z,23.50
2018-11-14T18:23:54.955Z,22.87
2018-11-14T18:28:58.182Z,26.68
2018-11-14T18:34:01.427Z,21.23
2018-11-14T18:39:09.236Z,18.57
2018-11-14T18:44:12.428Z,17.73
2018-11-14T18:49:15.635Z,17.80
2018-11-14T18:54:18.842Z,18.37
2018-11-14T18:59:22.109Z,20.02
2018-11-14T19:04:25.339Z,23.20
2018-11-14T19:09:28.583Z,22.93
2018-11-14T19:14:31.777Z,24.32
2018-11-14T19:19:34.975Z,19.45
2018-11-14T19:24:38.306Z,21.52
2018-11-14T19:29:41.438Z,13.62
2018-11-14T19:34:44.635Z,14.00
2018-11-14T19:39:47.854Z,13.40
2018-11-14T19:44:51.035Z,16.77
2018-11-14T19:49:54.235Z,15.68
2018-11-14T19:54:57.433Z,17.00
2018-11-14T20:00:00.879Z,13.87
2018-11-14T20:05:04.295Z,12.23
2018-11-14T20:10:10.153Z,13.40
2018-11-14T20:15:14.601Z,12.20
2018-11-14T20:20:19.331Z,11.57
2018-11-14T20:25:22.551Z,20.75
2018-11-14T20:30:27.129Z,21.60
2018-11-14T20:35:30.278Z,21.63
2018-11-14T20:40:33.503Z,28.57
2018-11-14T20:45:36.738Z,29.27
2018-11-14T20:50:39.943Z,28.20
2018-11-14T20:55:43.195Z,23.83
2018-11-14T21:00:46.399Z,22.27
2018-11-14T21:05:49.782Z,21.70
2018-11-14T21:10:53.019Z,19.30
2018-11-14T21:15:56.218Z,18.05
2018-11-14T21:20:59.428Z,17.98
2018-11-14T21:26:02.648Z,26.77
2018-11-14T21:31:05.884Z,16.47
2018-11-14T21:36:09.205Z,16.60
2018-11-14T21:41:12.407Z,20.23
2018-11-14T21:46:15.651Z,17.87
2018-11-14T21:51:18.868Z,19.25
2018-11-14T21:56:22.083Z,22.22
2018-11-14T22:01:25.291Z,15.43
2018-11-14T22:06:28.490Z,14.95
2018-11-14T22:11:31.704Z,16.95
2018-11-14T22:16:34.915Z,16.42
2018-11-14T22:21:38.100Z,14.63
2018-11-14T22:26:41.299Z,15.18
2018-11-14T22:31:44.491Z,14.47
2018-11-14T22:36:47.793Z,13.98
2018-11-14T22:41:51.011Z,13.03
2018-11-14T22:46:54.583Z,12.63
2018-11-14T22:51:57.815Z,13.45
2018-11-14T22:57:01.023Z,15.83
2018-11-14T23:02:04.519Z,18.07
2018-11-14T23:07:07.751Z,24.20
2018-11-14T23:12:10.963Z,19.47
2018-11-14T23:17:14.287Z,17.10
2018-11-14T23:22:17.515Z,14.70
2018-11-14T23:27:20.707Z,14.43
2018-11-14T23:32:23.923Z,16.27
2018-11-14T23:37:27.139Z,15.85
2018-11-14T23:42:30.370Z,16.25
2018-11-14T23:47:33.609Z,15.90
2018-11-14T23:52:36.843Z,16.65
2018-11-14T23:57:40.439Z,17.25
